Albi, France

1:58 PM CEST on July 29, 2014 (GMT +0200)
station albi (IMIDIPYR71) Elev 594 ft | 43.93 °N, 2.15 °E | Change Station

Current weather conditions updated 8 seconds ago

Mostly Cloudy
Mostly Cloudy
68.7 °F
Feels Like 68.7 °F
N
5.4
Wind Variable Wind from NNW
Gusts 5.4 mph

Today is forecast to be Cooler than yesterday. Chance of showers tonight.

Today
High -- | Low -- °F
--% Chance of Precip.
Yesterday
High -- | Low -- °F
Precip. -- in
6:36 AM 9:18 PM
Waxing Crescent, 6% visible
Pressure 30.04 in
Visibility 6.2 miles
Clouds Mostly Cloudy 3200 ft
Mostly Cloudy 4900 ft
Mostly Cloudy 5600 ft
Dew Point 54 °F
Humidity 59%
Rainfall 0.00 in
Snow Depth Not available.
UV 6 out of 12
Pollen Not available.
Air Quality Not available.
Flu Activity Not available.
METAR LFCK 291130Z AUTO 31017KT 9999 BKN032 BKN049 BKN056 19/12 Q1017

More Conditions Fewer Conditions

Pressure 30.04 in
Visibility 6.2 miles
Clouds Mostly Cloudy 3200 ft
Mostly Cloudy 4900 ft
Mostly Cloudy 5600 ft
Dew Point 54 °F
Humidity 59%
Rainfall 0.00 in
Snow Depth Not available.
UV 6 out of 12
Pollen Not available.
Air Quality Not available.
Flu Activity Not available.
METAR LFCK 291130Z AUTO 31017KT 9999 BKN032 BKN049 BKN056 19/12 Q1017

More Conditions Fewer Conditions

10-Day Weather Forecast

Almanac

Astronomy

Jul. 29, 2014 Rise Set
Actual Time 6:36 AM CEST 9:18 PM CEST
Civil Twilight 6:03 AM CEST 9:52 PM CEST
Nautical Twilight 5:21 AM CEST 10:33 PM CEST
Astronomical Twilight 4:32 AM CEST 11:21 PM CEST
Moon 9:05 AM CEST 10:15 PM CEST
Length of Visible Light 15h 48m
Length of Day
14h 42m
Tomorrow will be 2m 13s shorter.
Waxing Crescent, 6% of the Moon is Illuminated
Today
Waxing Crescent
Aug 3
First Quarter
Aug 10
Full
Aug 17
Last Quarter
Aug 25
New

Yesterday's Extremes

Country Highs Country Lows

Community

WunderPhotos

Upload Photos

1,738,690 photos uploaded!

WunderBlogs® & News

By Dr. Jeff Masters
Director of Meteorology, Weather Underground
By Kari Strenfel
Meteorologist, Weather Underground
By Christopher C. Burt
Weather Historian, Weather Underground
July 29, 2014
July 29, 2014
July 29, 2014

Nearby

Snow Depth

Not available.

Earthquake Activity

City Distance Mag. Time & Date
No recent earthquake activity has been reported nearby.
Minimum magnitude displayed is 2.5.

Coastal Water Temperatures

Place Temperature
No Stations Reporting

Nearby Weather Stations

Station Location Temp. Heat Index Dew Point Humidity Wind Precip. Elev Updated Type
station albi, Albi 68.7 °F - 54 °F 59% NNW  at  5.4 mph 0.00 in / hr 594 ft 1:58 PM CEST Normal
CASTRES 71.2 °F 76 °F 56 °F 58% SW  at  15.7 mph 0.00 in / hr 696 ft 1:32 PM CEST Normal
Saint-Sulpice, Saint-Sulpice-la-Pointe 71.1 °F 77 °F 48 °F 43% NW  at  6.0 mph 0.00 in / hr 371 ft 1:56 PM CEST Normal

Show More Stations Show Fewer Stations